地図

経路データ

SID SEASON NUMBER BASIN SUBBASIN NAME ISO_TIME NATURE LAT LON WMO_WIND WMO_PRES WMO_AGENCY TRACK_TYPE DIST2LAND LANDFALL IFLAG USA_AGENCY USA_ATCF_ID USA_LAT USA_LON USA_RECORD USA_STATUS USA_WIND USA_PRES USA_SSHS USA_R34_NE USA_R34_SE USA_R34_SW USA_R34_NW USA_R50_NE USA_R50_SE USA_R50_SW USA_R50_NW USA_R64_NE USA_R64_SE USA_R64_SW USA_R64_NW USA_POCI USA_ROCI USA_RMW USA_EYE TOKYO_LAT TOKYO_LON TOKYO_GRADE TOKYO_WIND TOKYO_PRES TOKYO_R50_DIR TOKYO_R50_LONG TOKYO_R50_SHORT TOKYO_R30_DIR TOKYO_R30_LONG TOKYO_R30_SHORT TOKYO_LAND CMA_LAT CMA_LON CMA_CAT CMA_WIND CMA_PRES HKO_LAT HKO_LON HKO_CAT HKO_WIND HKO_PRES NEWDELHI_LAT NEWDELHI_LON NEWDELHI_GRADE NEWDELHI_WIND NEWDELHI_PRES NEWDELHI_CI NEWDELHI_DP NEWDELHI_POCI REUNION_LAT REUNION_LON REUNION_TYPE REUNION_WIND REUNION_PRES REUNION_TNUM REUNION_CI REUNION_RMW REUNION_R34_NE REUNION_R34_SE REUNION_R34_SW REUNION_R34_NW REUNION_R50_NE REUNION_R50_SE REUNION_R50_SW REUNION_R50_NW REUNION_R64_NE REUNION_R64_SE REUNION_R64_SW REUNION_R64_NW BOM_LAT BOM_LON BOM_TYPE BOM_WIND BOM_PRES BOM_TNUM BOM_CI BOM_RMW BOM_R34_NE BOM_R34_SE BOM_R34_SW BOM_R34_NW BOM_R50_NE BOM_R50_SE BOM_R50_SW BOM_R50_NW BOM_R64_NE BOM_R64_SE BOM_R64_SW BOM_R64_NW BOM_ROCI BOM_POCI BOM_EYE BOM_POS_METHOD BOM_PRES_METHOD NADI_LAT NADI_LON NADI_CAT NADI_WIND NADI_PRES WELLINGTON_LAT WELLINGTON_LON WELLINGTON_WIND WELLINGTON_PRES DS824_LAT DS824_LON DS824_STAGE DS824_WIND DS824_PRES TD9636_LAT TD9636_LON TD9636_STAGE TD9636_WIND TD9636_PRES TD9635_LAT TD9635_LON TD9635_WIND TD9635_PRES TD9635_ROCI NEUMANN_LAT NEUMANN_LON NEUMANN_CLASS NEUMANN_WIND NEUMANN_PRES MLC_LAT MLC_LON MLC_CLASS MLC_WIND MLC_PRES USA_GUST BOM_GUST BOM_GUST_PER REUNION_GUST REUNION_GUST_PER USA_SEAHGT USA_SEARAD_NE USA_SEARAD_SE USA_SEARAD_SW USA_SEARAD_NW STORM_SPEED STORM_DIR
1976150N12070 1976 58 NI AS NOT_NAMED 1976-05-29 00:00:00 TS 11.5000 69.5000 main 594 581 O________OO___ jtwc_io IO021976 11.5000 69.5000 -1 11.5000 69.5000 TC 11.5000 69.5000 1 3 44
1976150N12070 1976 58 NI AS NOT_NAMED 1976-05-29 03:00:00 TS 11.5992 69.5960 main 581 568 P________PP___ IO021976 11.5925 69.5925 -1 11.5925 69.5925 TC 11.6125 69.6031 1 3 44
1976150N12070 1976 58 NI AS NOT_NAMED 1976-05-29 06:00:00 TS 11.7100 69.7050 main 568 554 O________OP___ jtwc_io IO021976 11.7000 69.7000 -1 11.7000 69.7000 TC 11.7299 69.7150 1 3 44
1976150N12070 1976 58 NI AS NOT_NAMED 1976-05-29 09:00:00 TS 11.8425 69.8381 main 554 529 P________PP___ IO021976 11.8350 69.8350 -1 11.8350 69.8350 TC 11.8575 69.8444 1 4 45
1976150N12070 1976 58 NI AS NOT_NAMED 1976-05-29 12:00:00 TS 12.0000 70.0000 main 529 503 O________OO___ jtwc_io IO021976 12.0000 70.0000 -1 12.0000 70.0000 TC 12.0000 70.0000 1 5 45
1976150N12070 1976 58 NI AS NOT_NAMED 1976-05-29 15:00:00 TS 12.1824 70.1905 main 503 477 P________PP___ IO021976 12.1925 70.1925 -1 12.1925 70.1925 TC 12.1623 70.1866 1 5 45
1976150N12070 1976 58 NI AS NOT_NAMED 1976-05-29 18:00:00 TS 12.3825 70.3975 main 477 451 O________OP___ jtwc_io IO021976 12.4000 70.4000 -1 12.4000 70.4000 TC 12.3476 70.3925 1 6 46
1976150N12070 1976 58 NI AS NOT_NAMED 1976-05-29 21:00:00 TS 12.5764 70.6058 main 451 421 P________PP___ IO021976 12.5850 70.6075 -1 12.5850 70.6075 TC 12.5591 70.6022 1 6 43
1976150N12070 1976 58 NI AS NOT_NAMED 1976-05-30 00:00:00 TS 12.8000 70.8000 main 421 384 O________OO___ jtwc_io IO021976 12.8000 70.8000 -1 12.8000 70.8000 TC 12.8000 70.8000 1 6 34
1976150N12070 1976 58 NI AS NOT_NAMED 1976-05-30 03:00:00 TS 13.0899 70.9652 main 384 356 P________PP___ IO021976 13.0850 70.9575 -1 13.0850 70.9575 TC 13.0997 70.9805 1 7 27
1976150N12070 1976 58 NI AS NOT_NAMED 1976-05-30 06:00:00 TS 13.4075 71.1149 main 356 321 O________OP___ jtwc_io IO021976 13.4000 71.1000 -1 13.4000 71.1000 TC 13.4225 71.1448 1 7 25
1976150N12070 1976 58 NI AS NOT_NAMED 1976-05-30 09:00:00 TS 13.7264 71.2722 main 321 296 P________PP___ IO021976 13.7225 71.2650 -1 13.7225 71.2650 TC 13.7341 71.2867 1 7 25
1976150N12070 1976 58 NI AS NOT_NAMED 1976-05-30 12:00:00 TS 14.0000 71.4000 main 296 277 O________OO___ jtwc_io IO021976 14.0000 71.4000 -1 14.0000 71.4000 TC 14.0000 71.4000 1 5 23
1976150N12070 1976 58 NI AS NOT_NAMED 1976-05-30 15:00:00 TS 14.1757 71.4724 main 277 273 P________PP___ IO021976 14.1800 71.4651 -1 14.1800 71.4651 TC 14.1671 71.4871 1 3 21
1976150N12070 1976 58 NI AS NOT_NAMED 1976-05-30 18:00:00 TS 14.2958 71.5151 main 273 259 O________OP___ jtwc_io IO021976 14.3000 71.5000 -1 14.3000 71.5000 TC 14.2874 71.5452 1 2 22
1976150N12070 1976 58 NI AS NOT_NAMED 1976-05-30 21:00:00 TS 14.3963 71.5652 main 259 256 P________PP___ IO021976 14.4000 71.5575 -1 14.4000 71.5575 TC 14.3890 71.5807 1 2 22
1976150N12070 1976 58 NI AS NOT_NAMED 1976-05-31 00:00:00 TS 14.5000 71.6000 main 256 251 O________OO___ jtwc_io IO021976 14.5000 71.6000 -1 14.5000 71.6000 TC 14.5000 71.6000 1 2 8
1976150N12070 1976 58 NI AS NOT_NAMED 1976-05-31 03:00:00 TS 14.6381 71.6125 main 251 242 P________PP___ IO021976 14.6350 71.6075 -1 14.6350 71.6075 TC 14.6444 71.6225 1 3 0
1976150N12070 1976 58 NI AS NOT_NAMED 1976-05-31 06:00:00 TS 14.8017 71.6100 main 242 235 O________OP___ jtwc_io IO021976 14.8000 71.6000 -1 14.8000 71.6000 TC 14.8050 71.6299 1 4 0
1976150N12070 1976 58 NI AS NOT_NAMED 1976-05-31 09:00:00 TS 14.9860 71.6125 main 235 227 P________PP___ IO021976 14.9850 71.6075 -1 14.9850 71.6075 TC 14.9881 71.6224 1 4 0
1976150N12070 1976 58 NI AS NOT_NAMED 1976-05-31 12:00:00 TS 15.2000 71.6000 main 227 217 O________OO___ jtwc_io IO021976 15.2000 71.6000 -1 15.2000 71.6000 TC 15.2000 71.6000 4 5 356
1976150N12070 1976 58 NI AS NOT_NAMED 1976-05-31 15:00:00 TS 15.4360 71.5625 main 217 212 P________PP___ IO021976 15.4350 71.5575 -1 15.4350 71.5575 TC 15.4381 71.5724 4 5 350
1976150N12070 1976 58 NI AS NOT_NAMED 1976-05-31 18:00:00 TS 15.7017 71.5100 main 212 200 O________OP___ jtwc_io IO021976 15.7000 71.5000 -1 15.7000 71.5000 TC 15.7050 71.5299 4 6 351
1976150N12070 1976 58 NI AS NOT_NAMED 1976-05-31 21:00:00 TS 15.9881 71.4674 main 200 197 P________PP___ IO021976 15.9850 71.4649 -1 15.9850 71.4649 TC 15.9944 71.4724 4 6 350
1976150N12070 1976 58 NI AS NOT_NAMED 1976-06-01 00:00:00 TS 16.3000 71.4000 main 203 202 O________OO___ jtwc_io IO021976 16.3000 71.4000 -1 16.3000 71.4000 TC 16.3000 71.4000 4 7 344
1976150N12070 1976 58 NI AS NOT_NAMED 1976-06-01 03:00:00 TS 16.6423 71.2635 main 213 213 P________PP___ IO021976 16.6500 71.2501 -1 16.6500 71.2501 TC 16.6269 71.2904 4 7 339
1976150N12070 1976 58 NI AS NOT_NAMED 1976-06-01 06:00:00 TS 16.9884 71.1235 main 222 216 O________OP___ jtwc_io IO021976 17.0000 71.1000 -1 17.0000 71.1000 TC 16.9651 71.1705 4 7 342
1976150N12070 1976 58 NI AS NOT_NAMED 1976-06-01 09:00:00 TS 17.3085 71.0351 main 225 211 P________PP___ IO021976 17.3150 71.0200 -1 17.3150 71.0200 TC 17.2957 71.0654 4 6 349
1976150N12070 1976 58 NI AS NOT_NAMED 1976-06-01 12:00:00 TS 17.6000 71.0000 main 211 205 O________OO___ jtwc_io IO021976 17.6000 71.0000 -1 17.6000 71.0000 TC 17.6000 71.0000 4 6 0
1976150N12070 1976 58 NI AS NOT_NAMED 1976-06-01 15:00:00 TS 17.8585 71.0255 main 203 190 P________PP___ IO021976 17.8650 71.0349 -1 17.8650 71.0349 TC 17.8456 71.0066 4 5 9
1976150N12070 1976 58 NI AS NOT_NAMED 1976-06-01 18:00:00 TS 18.0883 71.0849 main 190 190 O________OP___ jtwc_io IO021976 18.1000 71.1000 -1 18.1000 71.1000 TC 18.0650 71.0547 4 5 14
1976150N12070 1976 58 NI AS NOT_NAMED 1976-06-01 21:00:00 TS 18.2923 71.1418 main 190 174 P________PP___ IO021976 18.3000 71.1500 -1 18.3000 71.1500 TC 18.2769 71.1255 4 4 15
1976150N12070 1976 58 NI AS NOT_NAMED 1976-06-02 00:00:00 TS 18.5000 71.2000 main 174 169 O________OO___ jtwc_io IO021976 18.5000 71.2000 -1 18.5000 71.2000 TC 18.5000 71.2000 4 5 13
1976150N12070 1976 58 NI AS NOT_NAMED 1976-06-02 03:00:00 TS 18.7408 71.2474 main 169 157 P________PP___ IO021976 18.7350 71.2500 -1 18.7350 71.2500 TC 18.7525 71.2420 4 5 10
1976150N12070 1976 58 NI AS NOT_NAMED 1976-06-02 06:00:00 TS 19.0067 71.2951 main 157 148 O________OP___ jtwc_io IO021976 19.0000 71.3000 XX 35 -5 19.0000 71.3000 TC 35 19.0200 71.2852 4 6 9
1976150N12070 1976 58 NI AS NOT_NAMED 1976-06-02 09:00:00 TS 19.2908 71.3403 main 148 136 P________PP___ IO021976 19.2850 71.3426 XX 37 -5 19.2850 71.3426 TC 37 19.3025 71.3358 4 6 9
1976150N12070 1976 58 NI AS NOT_NAMED 1976-06-02 12:00:00 TS 19.6000 71.4000 main 136 108 O________OO___ jtwc_io IO021976 19.6000 71.4000 XX 40 -5 19.6000 71.4000 TC 40 19.6000 71.4000 4 7 12
1976150N12070 1976 58 NI AS NOT_NAMED 1976-06-02 15:00:00 TS 19.9450 71.4915 main 108 70 P________PP___ IO021976 19.9500 71.4925 XX 40 -5 19.9500 71.4925 TC 40 19.9350 71.4895 4 7 15
1976150N12070 1976 58 NI AS NOT_NAMED 1976-06-02 18:00:00 TS 20.2933 71.5974 main 70 45 O________OP___ jtwc_io IO021976 20.3000 71.6000 XX 40 -5 20.3000 71.6000 TC 40 20.2800 71.5922 4 7 16
1976150N12070 1976 58 NI AS NOT_NAMED 1976-06-02 21:00:00 TS 20.6183 71.6996 main 45 22 P________PP___ IO021976 20.6225 71.7000 XX 40 -5 20.6225 71.7000 TC 40 20.6100 71.6989 4 6 17
1976150N12070 1976 58 NI AS NOT_NAMED 1976-06-03 00:00:00 TS 20.9000 71.8000 main 22 10 O________OO___ jtwc_io IO021976 20.9000 71.8000 XX 40 -5 20.9000 71.8000 TC 40 20.9000 71.8000 4 5 20
1976150N12070 1976 58 NI AS NOT_NAMED 1976-06-03 03:00:00 TS 21.1183 71.8965 main 10 0 P________PP___ IO021976 21.1225 71.9075 XX 40 -5 21.1225 71.9075 TC 40 21.1099 71.8744 4 4 23
1976150N12070 1976 58 NI AS NOT_NAMED 1976-06-03 06:00:00 TS 21.2933 71.9810 main 0 0 O________OP___ jtwc_io IO021976 21.3000 72.0000 XX 40 -5 21.3000 72.0000 TC 40 21.2799 71.9430 4 3 21
1976150N12070 1976 58 NI AS NOT_NAMED 1976-06-03 09:00:00 TS 21.4400 72.0334 main 0 0 P________PP___ IO021976 21.4425 72.0426 XX 37 -5 21.4425 72.0426 TC 37 21.4349 72.0150 4 3 20
1976150N12070 1976 58 NI AS NOT_NAMED 1976-06-03 12:00:00 TS 21.6000 72.1000 main 0 0 O________OO___ jtwc_io IO021976 21.6000 72.1000 XX 35 -5 21.6000 72.1000 TC 35 21.6000 72.1000 4 4 25
1976150N12070 1976 58 NI AS NOT_NAMED 1976-06-03 15:00:00 TS 21.8441 72.2385 main 0 0 P________PP___ IO021976 21.8425 72.2424 XX -5 21.8425 72.2424 TC 21.8473 72.2306 4 6 28
1976150N12070 1976 58 NI AS NOT_NAMED 1976-06-03 18:00:00 TS 22.1009 72.3907 main 10 0 O________OP___ jtwc_io IO021976 22.1000 72.4000 -1 22.1000 72.4000 TC 22.1026 72.3720 4 6 27
1976150N12070 1976 58 NI AS NOT_NAMED 1976-06-03 21:00:00 TS 22.3355 72.5158 main 0 0 P________PP___ IO021976 22.3375 72.5225 -1 22.3375 72.5225 TC 22.3317 72.5025 4 4 26
1976150N12070 1976 58 NI AS NOT_NAMED 1976-06-04 00:00:00 TS 22.5000 72.6000 main 0 0 O________OO___ jtwc_io IO021976 22.5000 72.6000 -1 22.5000 72.6000 TC 22.5000 72.6000 4 2 26
1976150N12070 1976 58 NI AS NOT_NAMED 1976-06-04 03:00:00 TS 22.5375 72.6194 main 0 0 P________PP___ IO021976 22.5300 72.6150 -1 22.5300 72.6150 TC 22.5524 72.6281 4 0 0
1976150N12070 1976 58 NI AS NOT_NAMED 1976-06-04 06:00:00 TS 22.5150 72.6076 main 0 0 O________OP___ jtwc_io IO021976 22.5000 72.6000 -1 22.5000 72.6000 TC 22.5449 72.6228 4 0 199
1976150N12070 1976 58 NI AS NOT_NAMED 1976-06-04 09:00:00 TS 22.5000 72.5970 main 0 0 P________PP___ IO021976 22.4925 72.5925 -1 22.4925 72.5925 TC 22.5150 72.6061 4 0 0
1976150N12070 1976 58 NI AS NOT_NAMED 1976-06-04 12:00:00 TS 22.5000 72.6000 main 0 0 O________OO___ jtwc_io IO021976 22.5000 72.6000 -1 22.5000 72.6000 TC 22.5000 72.6000 4 1 50
1976150N12070 1976 58 NI AS NOT_NAMED 1976-06-04 15:00:00 TS 22.5357 72.6375 main 0 0 P________PP___ IO021976 22.5350 72.6425 -1 22.5350 72.6425 TC 22.5372 72.6276 4 1 38
1976150N12070 1976 58 NI AS NOT_NAMED 1976-06-04 18:00:00 TS 22.5992 72.6900 main 0 0 O________OP___ jtwc_io IO021976 22.6000 72.7000 -1 22.6000 72.7000 TC 22.5975 72.6701 4 2 30
1976150N12070 1976 58 NI AS NOT_NAMED 1976-06-04 21:00:00 TS 22.6847 72.7376 main 0 0 P________PP___ IO021976 22.6850 72.7425 -1 22.6850 72.7425 TC 22.6840 72.7276 4 2 28
1976150N12070 1976 58 NI AS NOT_NAMED 1976-06-05 00:00:00 TS 22.8000 72.8000 main 0 0 O________OO___ jtwc_io IO021976 22.8000 72.8000 -1 22.8000 72.8000 TC 22.8000 72.8000 1 3 29
1976150N12070 1976 58 NI AS NOT_NAMED 1976-06-05 03:00:00 TS 22.9389 72.8906 main 0 0 P________PP___ IO021976 22.9350 72.8925 -1 22.9350 72.8925 TC 22.9466 72.8867 1 4 31
1976150N12070 1976 58 NI AS NOT_NAMED 1976-06-05 06:00:00 TS 23.1059 72.9949 main 0 0 O________OP___ jtwc_io IO021976 23.1000 73.0000 -1 23.1000 73.0000 TC 23.1176 72.9847 1 4 28
1976150N12070 1976 58 NI AS NOT_NAMED 1976-06-05 09:00:00 TS 23.2966 73.0984 main 0 0 P________PP___ IO021976 23.2925 73.1024 -1 23.2925 73.1024 TC 23.3048 73.0903 1 4 26
1976150N12070 1976 58 NI AS NOT_NAMED 1976-06-05 12:00:00 TS 23.5000 73.2000 main 0 O________OO___ jtwc_io IO021976 23.5000 73.2000 -1 23.5000 73.2000 TC 23.5000 73.2000 6 4 25

IBTrACS Databaseについて

本データベースは、米国NOAAが公開する1842年以降の世界の熱帯低気圧のベストトラックデータアーカイブInternational Best Track Archive for Climate Stewardship (IBTrACS)を、ウェブで閲覧しやすい形式に変換したものです。

最終更新日:2021-11-26